^^
Datos históricos de la estación: Murcia-Puente Tocinos
Diario Informe para Septiembre 21, 2019 Unidades:  Ingés    Métrico   Ambas
Diario Semanal Mensual Anual
  Máxima: Mínima: Promedio:
Temperatura: 77.2 °F 62.1 °F 66.9 °F
Punto de rocio: 61.5 °F 53.1 °F 58.3 °F
Humedad: 89% 44.4% 75%
Velocidad viento: 11.2mph 0mph 4.4mph
Racha viento: 21mph - -
Viento- - Este
Presión: 30 in 29.9 in -
Precipitación: 0.1 in    
 
 
Tabla de datos para Septiembre 21, 2019
Hora Temperatura Punto de rocio Presión Viento Velocidad viento Racha viento Humedad Intensidad lluvia(por hora) Nubes
00:04 64.8 °F 59.5 °F 29.9 in NE 5.4 mph 9.2 mph 83% 0 in
00:09 64.8 °F 59.5 °F 29.9 in NE 5.3 mph 9 mph 83% 0 in
00:14 64.8 °F 59.5 °F 29.9 in NE 5.2 mph 8.1 mph 83% 0 in
00:19 64.8 °F 59.5 °F 29.9 in NE 4.8 mph 8 mph 83% 0 in
00:24 64.8 °F 59.5 °F 29.9 in ENE 4.3 mph 8.1 mph 83% 0 in
00:29 64.9 °F 59.7 °F 29.9 in ENE 4.7 mph 8.1 mph 83% 0 in
00:34 64.9 °F 59.7 °F 29.9 in NE 5.2 mph 8.1 mph 83% 0 in
00:39 64.9 °F 59.7 °F 29.9 in NNE 4.7 mph 8 mph 83% 0 in
00:44 64.8 °F 59.5 °F 29.9 in NNE 4 mph 6.9 mph 83% 0 in
00:49 64.6 °F 59.4 °F 29.9 in NNE 4 mph 7 mph 83% 0 in
00:54 64.4 °F 59.2 °F 29.9 in NNE 4 mph 6.9 mph 83.4% 0 in
00:59 64.2 °F 59.4 °F 29.9 in NNE 4 mph 7 mph 84% 0 in
01:04 64.2 °F 59.4 °F 29.9 in NNE 4 mph 7 mph 84% 0 in
01:09 64.2 °F 59.4 °F 29.9 in NNE 4.3 mph 8.1 mph 84% 0 in
01:14 64.2 °F 59.4 °F 29.9 in NNE 4.7 mph 8 mph 84% 0 in
01:19 64.2 °F 59.2 °F 29.9 in NNE 4.7 mph 8.1 mph 84% 0 in
01:24 64 °F 59.2 °F 29.9 in NNE 4.3 mph 8 mph 84% 0 in
01:29 64 °F 59.4 °F 29.9 in NNE 3.9 mph 6.2 mph 84.4% 0 in
01:34 64 °F 59.4 °F 29.9 in NNE 3.1 mph 6.9 mph 85% 0 in
01:39 64 °F 59.4 °F 29.9 in NE 3.4 mph 7 mph 85% 0 in
01:44 64 °F 59.4 °F 29.9 in NNE 4 mph 6 mph 85% 0 in
01:49 64 °F 59.4 °F 29.9 in NE 3.7 mph 5 mph 85% 0 in
01:54 64 °F 59.4 °F 29.9 in NE 3.1 mph 5.2 mph 85% 0 in
01:59 64 °F 59.4 °F 29.9 in NE 3.3 mph 5.9 mph 85% 0 in
02:04 64 °F 59.4 °F 29.9 in NE 3.6 mph 6 mph 85% 0 in
02:09 64 °F 59.4 °F 29.9 in NE 3.6 mph 6 mph 85% 0 in
02:14 64 °F 59.4 °F 29.9 in NE 3.6 mph 5 mph 85% 0 in
02:19 64 °F 59.4 °F 29.9 in NE 3.2 mph 5 mph 85% 0 in
02:24 64 °F 59.4 °F 29.9 in NE 2.4 mph 4.6 mph 85% 0 in
02:29 64 °F 59.4 °F 29.9 in NE 2.4 mph 5 mph 85% 0 in
02:34 64 °F 59.4 °F 29.9 in NE 2.4 mph 5 mph 85% 0 in
02:39 64 °F 59.4 °F 29.9 in NE 2.2 mph 3.5 mph 85% 0 in
02:44 64 °F 59.4 °F 29.9 in NE 1.8 mph 2 mph 85% 0 in
02:49 64 °F 59.4 °F 29.9 in NE 1.1 mph 4 mph 85% 0 in
02:54 64 °F 59.4 °F 29.9 in Calm   5 mph 85% 0 in
02:59 63.9 °F 59.4 °F 29.9 in NNE 0.8 mph 5 mph 85% 0 in
03:04 63.9 °F 59.4 °F 29.9 in NNE 2 mph 4 mph 85% 0 in
03:09 63.9 °F 59.4 °F 29.9 in NNE 1.2 mph 3 mph 85% 0 in
03:14 63.9 °F 59.4 °F 29.9 in Calm     85% 0 in
03:19 63.7 °F 59.2 °F 29.9 in Calm     85.4% 0 in
03:24 63.7 °F 59.4 °F 29.9 in Calm   4 mph 86% 0 in
03:29 63.7 °F 59.4 °F 29.9 in NNE 0.5 mph 5 mph 86% 0 in
03:34 63.7 °F 59.4 °F 29.9 in NNE 1.4 mph 4 mph 86% 0 in
03:39 63.7 °F 59.4 °F 29.9 in NNE 1.6 mph 3.6 mph 86% 0 in
03:44 63.7 °F 59.4 °F 29.9 in NNE 2 mph 4 mph 86% 0 in
03:49 63.7 °F 59.4 °F 29.9 in NE 1.9 mph 4.6 mph 86% 0 in
03:54 63.7 °F 59.4 °F 29.9 in NE 1.8 mph 5 mph 86% 0 in
03:59 63.7 °F 59.4 °F 29.9 in NE 1.6 mph 4.6 mph 85.8% 0 in
04:04 63.5 °F 58.8 °F 29.9 in NE 1.4 mph 5 mph 85% 0 in
04:09 63.3 °F 58.6 °F 29.9 in NE 1.8 mph 5 mph 85% 0 in
04:14 63.1 °F 58.3 °F 29.9 in NE 2.4 mph 4.6 mph 84.2% 0 in
04:19 63.1 °F 58.3 °F 29.9 in NE 2.4 mph 5 mph 84.3% 0 in
04:24 63.1 °F 58.6 °F 29.9 in NE 2.4 mph 5 mph 85% 0 in
04:29 63.1 °F 58.6 °F 29.9 in NE 2 mph 3 mph 85% 0 in
04:34 63.1 °F 58.5 °F 29.9 in NE 1.4 mph 4.6 mph 84.8% 0 in
04:39 63.1 °F 58.5 °F 29.9 in NE 1.6 mph 5 mph 84.6% 0 in
04:44 63.1 °F 58.5 °F 29.9 in NE 2 mph 5 mph 84.9% 0 in
04:49 63.1 °F 59 °F 29.9 in NE 2.4 mph 5 mph 85.9% 0 in
04:54 63.1 °F 58.8 °F 29.9 in NE 3.1 mph 5 mph 86% 0 in
04:59 63.1 °F 59.2 °F 29.9 in ENE 2.7 mph 5 mph 87% 0 in
05:04 63.1 °F 59 °F 29.9 in SE 2 mph 4.7 mph 86% 0 in
05:09 63.1 °F 58.8 °F 29.9 in ESE 2 mph 5 mph 86% 0 in
05:14 63.1 °F 58.8 °F 29.9 in ESE 2 mph 4 mph 85.8% 0 in
05:19 63.1 °F 58.6 °F 29.9 in ESE 1.9 mph 5 mph 85% 0 in
05:24 63.1 °F 58.6 °F 29.9 in ESE 1.8 mph 5 mph 85% 0 in
05:29 63.3 °F 58.6 °F 29.9 in ESE 1.9 mph 4 mph 85% 0 in
05:34 63.3 °F 58.6 °F 29.9 in Este 2 mph 5.8 mph 84.7% 0 in
05:39 63.1 °F 58.3 °F 29.9 in NE 2.3 mph 6 mph 84% 0 in
05:44 63 °F 58.3 °F 29.9 in NE 2.9 mph 5 mph 84.6% 0 in
05:49 63 °F 58.6 °F 29.9 in ENE 2.7 mph 5.8 mph 85.7% 0 in
05:54 62.8 °F 58.8 °F 29.9 in ESE 2.4 mph 6.9 mph 86.8% 0 in
05:59 62.8 °F 58.8 °F 29.9 in SE 2.7 mph 7 mph 87% 0 in
06:04 62.8 °F 58.8 °F 29.9 in Oeste 3.1 mph 5.8 mph 87% 0 in
06:09 62.8 °F 58.8 °F 29.9 in NNO 2.9 mph 6 mph 87% 0 in
06:14 62.8 °F 59 °F 29.9 in NNE 2.4 mph 5 mph 87.6% 0 in
06:19 62.8 °F 59.2 °F 29.9 in NNE 2.2 mph 4.6 mph 88% 0 in
06:24 62.4 °F 58.8 °F 29.9 in NE 1.8 mph 5.8 mph 88% 0 in
06:29 62.4 °F 58.8 °F 29.9 in NE 2.1 mph 6 mph 88% 0 in
06:34 62.4 °F 58.8 °F 29.9 in NE 2.4 mph 3.1 mph 88% 0 in
06:39 62.4 °F 58.8 °F 29.9 in NE 2.1 mph 3.5 mph 88% 0 in
06:44 62.4 °F 58.8 °F 29.9 in NNE 1.4 mph 4.7 mph 88% 0 in
06:49 62.2 °F 58.6 °F 29.9 in NO 1.6 mph 5.8 mph 88% 0 in
06:54 62.2 °F 59 °F 29.9 in NNO 2 mph 6 mph 88.9% 0 in
06:59 62.2 °F 59 °F 29.9 in NNO 2 mph 5 mph 89% 0 in
07:04 62.2 °F 59 °F 29.9 in NNO 2 mph 3.6 mph 89% 0 in
07:09 62.2 °F 59 °F 29.9 in NNO 1.9 mph 4 mph 89% 0 in
07:14 62.2 °F 59 °F 29.9 in NNO 1.8 mph 2 mph 89% 0 in
07:19 62.2 °F 59 °F 29.9 in NNO 1.1 mph   89% 0 in
07:24 62.2 °F 59 °F 29.9 in Calm   3.6 mph 89% 0 in
07:29 62.4 °F 59 °F 29.9 in NNO 0.5 mph 4 mph 88.5% 0 in
07:34 62.4 °F 58.8 °F 29.9 in NNO 1.4 mph 4 mph 88% 0 in
07:39 62.6 °F 59 °F 29.9 in ENE 1.6 mph 4.6 mph 88% 0 in
07:44 62.8 °F 59.2 °F 29.9 in ESE 2 mph 5 mph 88% 0 in
07:49 62.8 °F 59.2 °F 29.9 in Este 2.4 mph 5 mph 88% 0 in
07:54 62.8 °F 59.2 °F 29.9 in Este 2.9 mph 5 mph 88% 0 in
07:59 62.8 °F 59.2 °F 29.9 in Este 2.5 mph 4 mph 88% 0 in
08:04 63 °F 59.2 °F 29.9 in Este 2 mph 3 mph 88% 0 in
08:09 63 °F 59.4 °F 29.9 in Este 1.7 mph 3.5 mph 88% 0 in
08:14 63.1 °F 59.4 °F 29.9 in Este 1.4 mph 4.6 mph 88% 0 in
08:19 63.1 °F 59.5 °F 29.9 in Este 1.6 mph 5 mph 88% 0 in
08:24 63.3 °F 59.7 °F 29.9 in NE 1.8 mph 4.6 mph 88% 0 in
08:29 63.3 °F 59.7 °F 29.9 in ENE 1.8 mph 5 mph 88% 0 in
08:34 63.3 °F 59.7 °F 29.9 in ENE 1.8 mph 5 mph 88% 0 in
08:39 63.5 °F 59.9 °F 29.9 in NNE 1.9 mph 4.6 mph 88% 0 in
08:44 63.7 °F 60.1 °F 29.9 in NNE 2 mph 5.8 mph 88% 0 in
08:49 64 °F 60.4 °F 29.9 in NNE 2.4 mph 6 mph 88.3% 0 in
08:54 64.4 °F 60.6 °F 29.9 in NNE 2.9 mph 6.9 mph 87.3% 0 in
08:59 64.8 °F 60.8 °F 29.9 in NNE 3 mph 7 mph 86.8% 0 in
09:04 65.1 °F 60.6 °F 29.9 in NE 3.1 mph 6.9 mph 85.8% 0 in
09:09 65.1 °F 60.6 °F 29.9 in NE 3.5 mph 9.2 mph 85.4% 0 in
09:14 65.1 °F 60.6 °F 29.9 in NE 4.3 mph 10.4 mph 85.6% 0 in
09:19 65.3 °F 60.8 °F 29.9 in NE 4.9 mph 10 mph 85.7% 0 in
09:24 65.5 °F 60.8 °F 29.9 in ENE 5.9 mph 10.2 mph 85.3% 0 in
09:29 65.5 °F 60.8 °F 29.9 in ENE 5.5 mph 10 mph 85% 0 in
09:34 65.7 °F 60.8 °F 29.9 in ENE 4.7 mph 8 mph 85% 0 in
09:39 65.7 °F 60.8 °F 29.9 in NE 4.7 mph 9.2 mph 84.7% 0 in
09:44 65.7 °F 61 °F 29.9 in NE 4.7 mph 9.7 mph 84.5% 0 in
09:49 65.7 °F 60.8 °F 29.9 in NE 5 mph 10 mph 84% 0 in
09:54 65.7 °F 61 °F 29.9 in NNE 5.4 mph 9 mph 84.7% 0 in
09:59 65.8 °F 61 °F 29.9 in NE 5.3 mph 8.1 mph 84.8% 0 in
10:04 66.4 °F 61.3 °F 29.9 in NE 5.2 mph 8 mph 83.9% 0 in
10:09 66.9 °F 61.2 °F 29.9 in ENE 4.8 mph 8.7 mph 81.6% 0 in
10:14 67.3 °F 61 °F 29.9 in NE 4.3 mph 9.2 mph 80.5% 0 in
10:19 67.3 °F 61.2 °F 29.9 in NE 4.7 mph 9 mph 81% 0 in
10:24 67.5 °F 61.5 °F 29.9 in NE 5.4 mph 9.2 mph 81.4% 0 in
10:29 67.3 °F 60.8 °F 29.9 in NE 5 mph 9.7 mph 80% 0 in
10:34 67.1 °F 60.6 °F 29.9 in NNE 4.3 mph 10.7 mph 79.8% 0 in
10:39 67.3 °F 60.6 °F 29.9 in NE 4.9 mph 11 mph 79% 0 in
10:44 67.6 °F 60.4 °F 29.9 in NNE 5.9 mph 10.7 mph 78% 0 in
10:49 68.2 °F 60.3 °F 29.9 in NNE 5.7 mph 11.5 mph 76.1% 0 in
10:54 68.4 °F 59.9 °F 29.9 in NE 5.4 mph 12 mph 74.4% 0 in
10:59 68.5 °F 59.4 °F 29.9 in NE 6 mph 12 mph 72.3% 0 in
11:04 68.5 °F 59.2 °F 29.9 in NE 6.9 mph 12 mph 72% 0 in
11:09 68.7 °F 59.7 °F 29.9 in NNE 6.2 mph 12.7 mph 72.7% 0 in
11:14 69.1 °F 59.5 °F 29.9 in NE 5.2 mph 13 mph 71.8% 0 in
11:19 69.3 °F 58.6 °F 29.9 in NNE 5.6 mph 10 mph 68.9% 0 in
11:24 69.4 °F 59 °F 29.9 in NNE 6.2 mph 10 mph 69.5% 0 in
11:29 69.4 °F 58.8 °F 29.9 in NE 5.9 mph 9 mph 68.8% 0 in
11:34 69.8 °F 59 °F 29.9 in NE 5.4 mph 10.4 mph 68.5% 0 in
11:39 70.2 °F 59 °F 29.9 in NE 5.2 mph 10.4 mph 68.1% 0 in
11:44 70.2 °F 58.8 °F 29.9 in NE 4.7 mph 10.4 mph 67.4% 0 in
11:49 70.3 °F 59.2 °F 29.9 in NE 5.2 mph 10 mph 67.4% 0 in
11:54 70.7 °F 59.5 °F 29.9 in NNE 6.2 mph 10.4 mph 67.8% 0 in
11:59 71.1 °F 59.5 °F 29.9 in NNE 6.1 mph 11.5 mph 67% 0 in
12:04 71.1 °F 59.2 °F 29.9 in NE 5.9 mph 12 mph 66.1% 0 in
12:09 71.1 °F 58.5 °F 29.9 in NNE 6 mph 11.5 mph 64.5% 0 in
12:14 71.2 °F 58.3 °F 29.9 in NE 6.2 mph 12 mph 63.7% 0 in
12:19 71.8 °F 58.3 °F 29.9 in NE 5.7 mph 8.1 mph 62.7% 0 in
12:24 72.1 °F 58.1 °F 29.9 in NE 4.7 mph 13.8 mph 61.5% 0 in
12:29 72.5 °F 57.9 °F 29.9 in NNE 5.2 mph 14 mph 60.5% 0 in
12:34 72.7 °F 57.9 °F 29.9 in NNE 5.9 mph 12 mph 60% 0 in
12:39 72.9 °F 57.9 °F 29.9 in NE 5.2 mph 8.1 mph 59.5% 0 in
12:44 73 °F 57.9 °F 29.9 in NNE 4 mph 10.7 mph 58.9% 0 in
12:49 73.4 °F 57.7 °F 29.9 in North 4 mph 11 mph 58.1% 0 in
12:54 73.8 °F 57.9 °F 29.9 in NE 4 mph 10 mph 57.6% 0 in
12:59 73.9 °F 57.7 °F 29.9 in NE 4.3 mph 10.4 mph 57.1% 0 in
13:04 74.1 °F 57.7 °F 29.9 in NE 4.7 mph 12.7 mph 56.6% 0 in
13:09 73.9 °F 57.6 °F 29.9 in ENE 5.3 mph 13 mph 56.6% 0 in
13:14 74.1 °F 57.9 °F 29.9 in NE 6.2 mph 12.7 mph 56.8% 0 in
13:19 74.7 °F 57.6 °F 29.9 in Este 5.9 mph 13 mph 55.2% 0 in
13:24 74.8 °F 56.8 °F 29.9 in ESE 5.4 mph 12.7 mph 53.5% 0 in
13:29 75.2 °F 56.7 °F 29.9 in ENE 5.6 mph 13 mph 52.6% 0 in
13:34 75.7 °F 54.5 °F 29.9 in ESE 5.9 mph 12 mph 47.7% 0 in
13:39 75.9 °F 54.5 °F 29.9 in ESE 6 mph 11.2 mph 47.5% 0 in
13:44 75.7 °F 54.3 °F 29.9 in SE 6.2 mph 12 mph 47.3% 0 in
13:49 75.7 °F 54.5 °F 29.9 in ESE 6.1 mph 12.7 mph 47.7% 0 in
13:54 76.3 °F 54 °F 29.9 in ESE 5.9 mph 13 mph 46.1% 0 in
13:59 76.5 °F 53.1 °F 29.9 in ESE 6 mph 13 mph 44.4% 0 in
14:04 76.3 °F 53.4 °F 29.9 in ESE 6.2 mph 11.8 mph 45.1% 0 in
14:09 76.3 °F 54.3 °F 29.9 in Este 5.9 mph 12.7 mph 46.5% 0 in
14:14 76.5 °F 54.7 °F 29.9 in ESE 5.4 mph 13 mph 46.8% 0 in
14:19 77.2 °F 54.5 °F 29.9 in ESE 5.8 mph 15 mph 45.6% 0 in
14:24 77 °F 54.1 °F 29.9 in SE 6.4 mph 16.1 mph 45.2% 0 in
14:29 76.6 °F 53.6 °F 29.9 in SE 7.1 mph 16 mph 44.9% 0 in
14:34 76.5 °F 54.9 °F 29.9 in ESE 8.5 mph 16.3 mph 47.1% 0 in
14:39 76.5 °F 55.4 °F 29.9 in ESE 8.5 mph 16 mph 48.3% 0 in
14:44 76.3 °F 55.8 °F 29.9 in Este 8.5 mph 15 mph 49.3% 0 in
14:49 76.3 °F 56.1 °F 29.9 in Este 8.1 mph 15 mph 49.8% 0 in
14:54 75.7 °F 56.1 °F 29.9 in Este 7.6 mph 15 mph 50.5% 0 in
14:59 75.7 °F 56.8 °F 29.9 in ESE 7.8 mph 16.1 mph 51.7% 0 in
15:04 75.7 °F 56.5 °F 29.9 in ESE 8.1 mph 19.6 mph 51.1% 0 in
15:09 75.7 °F 55.9 °F 29.9 in Este 8.7 mph 20 mph 50.3% 0 in
15:14 75.7 °F 56.8 °F 29.9 in Este 9.7 mph 15 mph 52% 0 in
15:19 75.6 °F 56.7 °F 29.9 in Este 8.8 mph 13 mph 51.9% 0 in
15:24 75.6 °F 56.8 °F 29.9 in ESE 7.4 mph 19 mph 52.3% 0 in
15:29 75.7 °F 56.8 °F 29.9 in ESE 7.4 mph 19 mph 52% 0 in
15:34 75.7 °F 56.8 °F 29.9 in ESE 7.4 mph 13 mph 52% 0 in
15:39 75.6 °F 57 °F 29.9 in ESE 7.6 mph 13 mph 52.7% 0 in
15:44 75.2 °F 57 °F 29.9 in Este 8.1 mph 14 mph 53.3% 0 in
15:49 74.8 °F 57.2 °F 29.9 in Este 7.9 mph 14 mph 54% 0 in
15:54 74.5 °F 57.2 °F 29.9 in Este 7.6 mph 16.1 mph 55% 0 in
15:59 74.1 °F 57 °F 29.9 in Este 8.3 mph 16 mph 55.1% 0 in
16:04 74.1 °F 57.4 °F 29.9 in Este 9.2 mph 15 mph 55.8% 0 in
16:09 73.9 °F 57.4 °F 29.9 in Este 9 mph 17 mph 56.2% 0 in
16:14 73.8 °F 57 °F 29.9 in ESE 8.7 mph 18.4 mph 56% 0 in
16:19 73.6 °F 56.8 °F 29.9 in Este 9.4 mph 18 mph 56% 0 in
16:24 73.6 °F 57.2 °F 29.9 in Este 10.7 mph 16 mph 56.7% 0 in
16:29 73.6 °F 57.4 °F 29.9 in ESE 9.4 mph 18.5 mph 56.7% 0 in
16:34 73.6 °F 56.8 °F 29.9 in ESE 7.4 mph 19 mph 56.1% 0 in
16:39 73.2 °F 57 °F 29.9 in ESE 8.6 mph 18 mph 56.7% 0 in
16:44 73.4 °F 57.2 °F 29.9 in ESE 10.7 mph 16.3 mph 56.9% 0 in
16:49 73.2 °F 57 °F 29.9 in ESE 10.4 mph 20.7 mph 57% 0 in
16:54 72.9 °F 57 °F 29.9 in ESE 10 mph 21 mph 57.8% 0 in
16:59 73 °F 57.2 °F 29.9 in SE 10 mph 17.3 mph 57.8% 0 in
17:04 73 °F 57.4 °F 29.9 in ESE 10 mph 17 mph 58% 0 in
17:09 72.5 °F 57.2 °F 29.9 in ESE 9.7 mph 16.3 mph 58.7% 0 in
17:14 72.3 °F 57.6 °F 29.9 in ESE 9.2 mph 16 mph 59.9% 0 in
17:19 72.1 °F 57.4 °F 29.9 in Este 8.4 mph 12.7 mph 59.5% 0 in
17:24 72 °F 57 °F 29.9 in ESE 6.9 mph 13 mph 59.5% 0 in
17:29 71.8 °F 57.2 °F 29.9 in ESE 7.1 mph 12 mph 60% 0 in
17:34 71.6 °F 57.2 °F 29.9 in ESE 7.6 mph 15 mph 60.2% 0 in
17:39 71.4 °F 57.4 °F 29.9 in Este 7.1 mph 15 mph 61% 0 in
17:44 71.2 °F 57.2 °F 29.9 in ENE 6.4 mph 12 mph 61% 0 in
17:49 71.2 °F 57.2 °F 29.9 in Este 6 mph 12 mph 61.1% 0 in
17:54 71.2 °F 57.7 °F 29.9 in Este 5.4 mph 11 mph 62.6% 0 in
17:59 71.1 °F 58.1 °F 29.9 in ENE 5.3 mph 10 mph 63.7% 0 in
18:04 70.7 °F 58.6 °F 29.9 in NNE 5.2 mph 8.7 mph 65.8% 0 in
18:09 70.3 °F 59.2 °F 29.9 in North 5 mph 9.2 mph 67.9% 0 in
18:14 70 °F 59.4 °F 29.9 in NNE 4.7 mph 9.7 mph 69% 0 in
18:19 69.6 °F 59.2 °F 30 in NNE 4.7 mph 10 mph 69.3% 0 in
18:24 69.6 °F 59.4 °F 30 in NNE 4.7 mph 8.5 mph 69.8% 0 in
18:29 69.4 °F 59.2 °F 30 in NNE 4.9 mph 9.2 mph 69.9% 0 in
18:34 69.3 °F 59.5 °F 30 in North 5.2 mph 9 mph 71.3% 0.02 in
18:39 68.9 °F 59.5 °F 30 in NNO 5.2 mph 16.1 mph 71.9% 0.03 in
18:44 67.1 °F 55.9 °F 30 in NNO 5.2 mph 19.6 mph 67.2% 0.03 in
18:49 64.9 °F 55 °F 30 in NNO 7.6 mph 20 mph 70% 0.03 in
18:54 63.9 °F 55.4 °F 30 in NNO 11.2 mph 17 mph 73.6% 0.04 in
18:59 63.3 °F 55.2 °F 30 in North 9.3 mph 13 mph 75.1% 0.06 in
19:04 62.8 °F 54.9 °F 30 in NNE 6.4 mph 15 mph 75% 0.08 in
19:09 62.2 °F 55 °F 30 in NE 7.5 mph 15 mph 76.9% 0.09 in
19:14 62.1 °F 55.2 °F 30 in NE 9.2 mph 14 mph 78.1% 0.09 in
19:19 62.2 °F 55.2 °F 30 in NE 8.9 mph 14 mph 78.3% 0.09 in
19:24 62.4 °F 55.9 °F 29.9 in ENE 8.5 mph 14 mph 79.3% 0.1 in
19:29 62.2 °F 55.9 °F 29.9 in ENE 8.1 mph 13.8 mph 79.9% 0.1 in
19:34 62.2 °F 55.6 °F 29.9 in Este 7.4 mph 14 mph 78.7% 0.1 in
19:39 62.6 °F 55.2 °F 29.9 in ENE 6.8 mph 10.4 mph 76.7% 0.08 in
19:44 63.1 °F 55.2 °F 29.9 in North 5.9 mph 10 mph 75.7% 0.07 in
19:49 63.7 °F 56.7 °F 29.9 in Oeste 5 mph 8 mph 77.6% 0.07 in
19:54 64 °F 56.5 °F 29.9 in SO 3.6 mph 7 mph 76.6% 0.07 in
19:59 64.2 °F 56.3 °F 29.9 in SSO 3.7 mph 6.9 mph 75.4% 0.06 in
20:04 64.8 °F 56.5 °F 29.9 in SSO 4 mph 8.5 mph 74.9% 0.04 in
20:09 65.1 °F 56.1 °F 29.9 in SSO 4.7 mph 10.7 mph 72.8% 0.02 in
20:14 65.7 °F 56.5 °F 29.9 in SSO 5.9 mph 11.8 mph 72.3% 0.01 in
20:19 65.7 °F 56.7 °F 29.9 in OSO 5.7 mph 12 mph 72.7% 0.01 in
20:24 65.5 °F 56.5 °F 29.9 in ONO 5.4 mph 11 mph 72.5% 0 in
20:29 65.5 °F 56.5 °F 29.9 in Oeste 5.7 mph 9.2 mph 72.8% 0 in
20:34 65.5 °F 56.3 °F 29.9 in ONO 6.2 mph 9.7 mph 72.4% 0 in
20:39 65.5 °F 56.3 °F 29.9 in ONO 6.1 mph 10 mph 72.1% 0 in
20:44 65.5 °F 56.8 °F 29.9 in NO 5.9 mph 9 mph 73.7% 0 in
20:49 65.5 °F 57.2 °F 30 in North 5 mph 6 mph 74.6% 0 in
20:54 65.5 °F 57.7 °F 30 in North 3.6 mph 7.4 mph 76.3% 0 in
20:59 65.3 °F 57.9 °F 30 in NNO 3.4 mph 7 mph 77.2% 0 in
21:04 65.1 °F 57.9 °F 30 in NNE 3.1 mph 6 mph 77.6% 0 in
21:09 64.8 °F 57.6 °F 30 in NNE 3.1 mph 6.9 mph 77.3% 0 in
21:14 64.6 °F 57.6 °F 30 in NE 3.1 mph 7 mph 78% 0 in
21:19 64.2 °F 57.6 °F 30 in NNE 3.3 mph 6 mph 78.8% 0 in
21:24 64.2 °F 57.6 °F 30 in NNO 3.6 mph 5 mph 79.1% 0 in
21:29 64.2 °F 57.6 °F 30 in North 3.1 mph 5 mph 79.2% 0 in
21:34 64 °F 57.7 °F 30 in NNE 2.4 mph 5 mph 80% 0 in
21:39 64 °F 57.7 °F 30 in NNE 2.2 mph 5.4 mph 80% 0 in
21:44 63.9 °F 57.6 °F 30 in NE 2 mph 6.9 mph 80% 0 in
21:49 63.9 °F 57.6 °F 30 in NE 2.6 mph 7 mph 80% 0 in
21:54 63.9 °F 57.6 °F 30 in NE 3.6 mph 6 mph 80% 0 in
21:59 63.9 °F 57.6 °F 30 in NE 3.4 mph 6 mph 80% 0 in
22:04 64 °F 57.7 °F 30 in NE 3.1 mph 5.4 mph 80.2% 0 in
22:09 63.9 °F 57.9 °F 30 in NE 3.3 mph 6 mph 81% 0 in
22:14 63.7 °F 57.9 °F 30 in NE 3.6 mph 6 mph 81.7% 0 in
22:19 63.7 °F 58.1 °F 30 in NE 3.4 mph 5 mph 81.9% 0 in
22:24 63.5 °F 57.9 °F 30 in NE 3.1 mph 5 mph 82% 0 in
22:29 63.5 °F 57.9 °F 30 in NE 2.7 mph 5 mph 82% 0 in
22:34 63.7 °F 57.9 °F 30 in NE 2 mph 4.6 mph 82% 0 in
22:39 63.7 °F 58.1 °F 30 in NE 2 mph 5 mph 82% 0 in
22:44 63.7 °F 58.3 °F 30 in NE 2 mph 3 mph 82.8% 0 in
22:49 63.7 °F 58.5 °F 30 in NE 1.2 mph 2.4 mph 83% 0 in
22:54 63.7 °F 58.5 °F 30 in Calm   2 mph 83% 0 in
22:59 63.7 °F 58.5 °F 30 in Calm   2.4 mph 83% 0 in
23:04 63.7 °F 58.5 °F 30 in Calm   5.2 mph 83% 0 in
23:09 63.7 °F 58.1 °F 30 in ESE 0.7 mph 5.2 mph 82% 0 in
23:14 63.5 °F 57.9 °F 30 in ESE 2 mph 5 mph 82% 0 in
23:19 63.5 °F 57.9 °F 30 in ESE 1.8 mph 3 mph 82% 0 in
23:24 63.5 °F 57.7 °F 30 in ESE 1.4 mph 5.9 mph 81.7% 0 in
23:29 63.7 °F 57.7 °F 30 in ESE 1.8 mph 6 mph 81% 0 in
23:34 63.7 °F 57.7 °F 30 in ESE 2.4 mph 6 mph 81.2% 0 in
23:39 63.5 °F 57.9 °F 30 in SE 2.7 mph 6 mph 82% 0 in
23:44 63.3 °F 57.7 °F 30 in SE 3.1 mph 5.8 mph 82.2% 0 in
23:49 63.3 °F 58.1 °F 30 in SE 2.9 mph 6 mph 83% 0 in
23:54 63.1 °F 58.1 °F 30 in ONO 2.4 mph 5.8 mph 83% 0 in
23:59 63.1 °F 58.1 °F 30 in NNO 2.2 mph 6 mph 83.9% 0 in
Murcia-Puente Tocinos, España
Compliments of Weather Underground - 3 mb

La estación de MeteoMurcia.com, publica sus datos en los siguientes proyectos:

Weather Underground PWS IMURCIAP2 Meteoclimatic www.awekas.at

W3Counter
Web Analytics